Time;durP1;ratioP1;P1;durP2;ratioP2;P2;SDS_P1;SDS_P2;PMS_P1;PMS_P2;Temp;Humidity;BMP_temperature;BMP_pressure;BME280_temperature;BME280_humidity;BME280_pressure;Samples;Min_cycle;Max_cycle;Signal;HPM_P1;HPM_P2
2021/07/10 00:00:50;;;;;;;12.40;10.35;;;16.10;83.50;;;14.66;83.46;96526.38;5047379;28;20033;-65
2021/07/10 00:03:16;;;;;;;13.23;10.65;;;16.10;83.40;;;14.64;84.01;96520.50;5063767;28;20037;-64
2021/07/10 00:05:41;;;;;;;11.88;10.45;;;16.10;83.40;;;14.62;82.94;96519.06;5029932;28;20041;-63
2021/07/10 00:08:07;;;;;;;12.70;10.93;;;16.10;83.40;;;14.59;82.48;96515.00;5047804;28;20052;-64
2021/07/10 00:10:33;;;;;;;12.77;11.35;;;16.10;83.50;;;14.57;83.39;96506.44;5070859;28;20055;-64
2021/07/10 00:12:59;;;;;;;13.52;12.13;;;16.10;83.50;;;14.56;83.26;96509.31;5051433;28;20056;-64
2021/07/10 00:15:25;;;;;;;13.02;11.68;;;16.00;83.40;;;14.56;83.53;96506.66;5057175;28;20064;-65
2021/07/10 00:17:51;;;;;;;12.82;11.15;;;16.00;83.50;;;14.54;82.62;96500.75;5049694;28;20037;-64
2021/07/10 00:20:17;;;;;;;13.35;11.25;;;16.00;83.40;;;14.52;82.62;96494.84;5035187;28;20496;-64
2021/07/10 00:22:43;;;;;;;13.15;11.27;;;15.90;83.40;;;14.50;82.61;96496.88;5064327;28;20525;-65
2021/07/10 00:25:11;;;;;;;12.13;10.10;;;16.00;83.40;;;14.46;83.24;96491.16;5042464;28;20057;-64
2021/07/10 00:27:38;;;;;;;11.98;10.77;;;15.90;83.30;;;14.44;83.56;96495.84;5034553;28;20041;-64
2021/07/10 00:30:05;;;;;;;11.75;10.55;;;15.80;83.30;;;14.43;82.28;96483.63;5040539;28;20041;-64
2021/07/10 00:32:31;;;;;;;11.90;10.57;;;15.80;83.20;;;14.39;82.97;96483.19;5063616;28;20563;-64
2021/07/10 00:34:57;;;;;;;13.13;11.45;;;15.80;83.30;;;14.36;82.41;96482.78;5063258;28;20060;-64
2021/07/10 00:37:23;;;;;;;12.10;10.90;;;15.80;83.20;;;14.33;82.60;96488.50;5070447;28;20036;-66
2021/07/10 00:39:48;;;;;;;13.65;11.80;;;15.80;83.10;;;14.31;83.68;96486.06;5049901;28;20082;-64
2021/07/10 00:42:21;;;;;;;12.80;11.60;;;15.70;83.20;;;14.27;82.89;96495.41;5054235;28;20401;-65
2021/07/10 00:44:48;;;;;;;12.65;11.35;;;15.70;83.20;;;14.25;83.89;96478.09;5031383;28;20128;-64
2021/07/10 00:47:13;;;;;;;12.82;11.48;;;15.60;83.20;;;14.23;83.09;96477.47;5045545;28;20033;-65
2021/07/10 00:49:39;;;;;;;13.82;12.23;;;15.60;83.30;;;14.21;82.42;96463.63;5021859;28;20060;-64
2021/07/10 00:52:05;;;;;;;14.60;12.05;;;15.60;83.40;;;14.20;82.60;96469.94;5033743;28;20037;-64
2021/07/10 00:54:32;;;;;;;13.82;11.80;;;15.60;83.40;;;14.18;82.56;96479.91;5053872;28;20414;-64
2021/07/10 00:56:58;;;;;;;12.20;11.00;;;15.60;83.30;;;14.15;82.85;96472.38;5016126;28;20445;-64
2021/07/10 00:59:30;;;;;;;12.73;11.35;;;15.60;83.30;;;14.12;83.32;96470.16;5028454;28;20037;-64
2021/07/10 01:01:55;;;;;;;13.98;12.02;;;15.60;83.10;;;14.06;82.71;96466.50;5076077;28;20036;-64
2021/07/10 01:04:22;;;;;;;13.82;12.43;;;15.50;83.10;;;14.04;83.24;96466.69;5050775;28;20070;-64
2021/07/10 01:06:48;;;;;;;15.77;12.02;;;15.50;83.10;;;14.01;83.07;96461.78;5015943;28;20113;-64
2021/07/10 01:09:15;;;;;;;14.02;12.40;;;15.50;83.20;;;13.99;82.61;96466.47;5042873;28;20505;-64
2021/07/10 01:11:41;;;;;;;15.95;12.07;;;15.40;83.30;;;13.98;83.07;96464.81;5050658;28;20531;-65
2021/07/10 01:14:07;;;;;;;15.20;13.25;;;15.40;83.30;;;13.97;83.74;96455.25;5037191;28;20029;-64
2021/07/10 01:16:33;;;;;;;15.82;14.20;;;15.40;83.40;;;13.93;83.54;96446.13;5045170;28;20079;-65
2021/07/10 01:18:58;;;;;;;16.88;14.50;;;15.40;83.40;;;13.91;83.14;96442.03;5047739;28;20501;-64
2021/07/10 01:21:24;;;;;;;16.15;14.45;;;15.40;83.50;;;13.90;82.84;96448.34;5025535;28;20022;-64
2021/07/10 01:23:51;;;;;;;15.85;14.25;;;15.40;83.70;;;13.85;83.33;96448.97;5059275;28;20128;-64
2021/07/10 01:26:20;;;;;;;14.57;13.02;;;15.30;83.60;;;13.87;84.38;96443.47;5031257;28;20034;-65
2021/07/10 01:28:46;;;;;;;13.40;12.05;;;15.30;83.70;;;13.84;83.27;96444.69;5039862;28;20465;-64
2021/07/10 01:31:11;;;;;;;13.57;12.15;;;15.30;83.70;;;13.84;84.55;96443.88;5035141;28;20053;-64
2021/07/10 01:33:37;;;;;;;13.02;11.68;;;15.30;83.60;;;13.82;83.98;96441.44;5066663;28;20123;-64
2021/07/10 01:36:04;;;;;;;12.80;11.50;;;15.30;83.70;;;13.82;84.62;96443.25;5056526;28;20040;-64
2021/07/10 01:38:29;;;;;;;12.88;11.38;;;15.30;83.70;;;13.81;83.55;96439.81;5047329;28;20036;-64
2021/07/10 01:40:55;;;;;;;12.88;11.57;;;15.20;83.60;;;13.78;84.42;96442.81;5021714;28;20041;-64
2021/07/10 01:43:21;;;;;;;12.48;11.18;;;15.20;83.50;;;13.74;83.19;96436.31;5038201;28;20051;-64
2021/07/10 01:45:46;;;;;;;11.95;10.85;;;15.10;83.40;;;13.72;83.49;96427.75;5044943;28;20040;-63
2021/07/10 01:48:13;;;;;;;11.75;10.65;;;15.10;83.40;;;13.72;83.88;96439.16;5049881;28;20582;-65
2021/07/10 01:50:43;;;;;;;12.20;11.00;;;15.10;83.50;;;13.70;84.43;96424.50;5050843;28;20140;-64
2021/07/10 01:53:11;;;;;;;11.70;10.20;;;15.10;83.40;;;13.68;84.22;96426.53;5048930;28;20041;-64
2021/07/10 01:55:37;;;;;;;11.60;10.40;;;15.10;83.30;;;13.65;83.69;96425.13;5048097;28;20445;-64
2021/07/10 01:58:03;;;;;;;11.57;10.27;;;15.10;83.40;;;13.63;84.03;96427.16;5018841;28;20060;-64
2021/07/10 02:00:32;;;;;;;11.40;10.27;;;15.00;83.40;;;13.61;84.04;96423.06;5032513;28;20477;-64
2021/07/10 02:02:58;;;;;;;11.55;10.38;;;15.00;83.10;;;13.58;83.57;96420.81;5023915;28;20535;-64
2021/07/10 02:05:26;;;;;;;11.35;10.20;;;15.00;83.20;;;13.54;83.87;96419.59;5057241;28;20052;-64
2021/07/10 02:07:52;;;;;;;11.85;10.65;;;14.90;83.10;;;13.51;83.74;96414.69;5048945;28;20040;-64
2021/07/10 02:10:19;;;;;;;12.45;10.55;;;14.90;83.00;;;13.43;83.78;96419.16;5052105;28;20582;-64
2021/07/10 02:12:56;;;;;;;11.82;10.63;;;14.90;82.90;;;13.39;84.40;96411.84;5026678;28;20044;-64
2021/07/10 02:15:22;;;;;;;10.98;9.88;;;14.80;82.90;;;13.33;83.11;96402.84;5006538;28;20075;-64
2021/07/10 02:17:48;;;;;;;10.68;9.77;;;14.80;83.00;;;13.31;83.49;96402.25;5046519;28;20439;-64
2021/07/10 02:20:22;;;;;;;11.02;9.93;;;14.70;83.30;;;13.30;84.30;96402.44;5064550;28;20033;-64
2021/07/10 02:22:49;;;;;;;10.25;8.68;;;14.70;83.20;;;13.27;83.70;96400.19;5043944;28;20043;-64
2021/07/10 02:25:16;;;;;;;8.73;7.90;;;14.70;82.80;;;13.26;83.86;96391.47;5035142;28;20037;-64
2021/07/10 02:27:42;;;;;;;10.10;9.07;;;14.70;83.00;;;13.24;84.34;96397.97;5026758;28;20512;-64
2021/07/10 02:30:10;;;;;;;11.40;8.90;;;14.60;83.30;;;13.22;83.15;96394.69;5047644;28;20041;-64
2021/07/10 02:32:36;;;;;;;10.13;8.30;;;14.60;83.20;;;13.18;83.18;96395.09;5054273;28;20037;-64
2021/07/10 02:35:05;;;;;;;7.55;6.88;;;14.60;83.00;;;13.14;83.48;96387.75;5044579;28;20451;-64
2021/07/10 02:37:31;;;;;;;8.80;7.50;;;14.60;82.40;;;13.08;84.01;96385.88;5043296;28;20511;-64
2021/07/10 02:39:56;;;;;;;8.90;8.10;;;14.60;82.80;;;13.05;84.08;96383.63;5029757;28;20086;-64
2021/07/10 02:42:22;;;;;;;8.35;7.57;;;14.50;83.00;;;13.02;83.57;96373.47;5048097;28;20052;-64
2021/07/10 02:44:49;;;;;;;8.07;7.28;;;14.50;83.10;;;12.99;83.82;96373.84;5060351;28;20090;-64
2021/07/10 02:47:14;;;;;;;23.85;21.33;;;14.50;82.90;;;12.99;84.02;96368.56;5051050;28;20031;-64
2021/07/10 02:49:40;;;;;;;19.45;17.45;;;14.50;83.10;;;12.99;83.94;96364.09;5051775;28;20036;-64
2021/07/10 02:52:08;;;;;;;20.95;14.50;;;14.50;83.30;;;12.96;84.13;96361.88;5034112;28;20446;-64
2021/07/10 02:54:35;;;;;;;12.25;11.05;;;14.50;83.20;;;12.93;84.26;96358.81;5051463;28;20079;-64
2021/07/10 02:57:01;;;;;;;11.48;10.30;;;14.40;82.90;;;12.87;83.91;96358.56;5008773;28;20041;-64
2021/07/10 02:59:27;;;;;;;11.52;10.32;;;14.40;82.90;;;12.85;83.84;96371.16;5004994;28;20468;-65
2021/07/10 03:01:52;;;;;;;10.80;9.70;;;14.30;83.20;;;12.84;83.29;96372.16;5051078;28;20029;-64
2021/07/10 03:04:18;;;;;;;9.32;8.43;;;14.30;83.00;;;12.82;83.25;96368.91;5046337;28;20039;-64
2021/07/10 03:06:44;;;;;;;8.50;7.40;;;14.30;82.90;;;12.82;84.08;96374.19;5034630;28;20021;-64
2021/07/10 03:09:09;;;;;;;7.00;6.40;;;14.30;83.00;;;12.80;83.27;96365.66;5066920;28;20208;-64
2021/07/10 03:11:35;;;;;;;7.55;6.20;;;14.30;82.50;;;12.78;83.04;96362.41;5024336;28;20057;-64
2021/07/10 03:14:01;;;;;;;7.97;7.28;;;14.30;82.50;;;12.75;82.85;96367.25;5050989;28;20106;-64
2021/07/10 03:16:27;;;;;;;9.18;8.32;;;14.20;82.50;;;12.73;83.98;96364.00;5058262;28;20028;-64
2021/07/10 03:18:52;;;;;;;20.27;9.70;;;14.20;82.90;;;12.71;83.88;96366.84;5031496;28;20032;-64
2021/07/10 03:21:18;;;;;;;12.68;10.02;;;14.20;83.30;;;12.71;84.29;96372.13;5048057;28;20043;-64
2021/07/10 03:23:44;;;;;;;12.35;8.98;;;14.20;83.80;;;12.72;83.82;96373.75;5028564;28;20037;-66
2021/07/10 03:26:09;;;;;;;9.20;8.30;;;14.20;83.70;;;12.72;83.78;96373.75;5067673;28;20032;-65
2021/07/10 03:28:35;;;;;;;8.68;7.78;;;14.20;83.90;;;12.71;84.61;96372.13;5050323;28;20420;-64
2021/07/10 03:31:01;;;;;;;9.25;8.43;;;14.20;83.90;;;12.72;84.66;96376.38;5052241;28;20556;-66
2021/07/10 03:33:27;;;;;;;10.32;9.18;;;14.20;84.10;;;12.72;84.60;96373.75;5055183;28;20794;-71
2021/07/10 03:35:52;;;;;;;10.07;9.07;;;14.30;84.10;;;12.72;85.04;96375.56;5043653;28;20029;-71
2021/07/10 03:38:18;;;;;;;9.10;8.30;;;14.30;84.10;;;12.72;85.11;96370.28;5040779;28;20037;-67
2021/07/10 03:40:44;;;;;;;9.73;8.35;;;14.20;84.10;;;12.75;84.45;96370.72;5031097;28;20496;-69
2021/07/10 03:43:10;;;;;;;8.57;7.78;;;14.30;84.00;;;12.76;84.75;96369.69;5032338;28;20115;-67
2021/07/10 03:45:35;;;;;;;9.30;8.00;;;14.30;83.80;;;12.78;84.07;96372.94;5067425;28;20052;-65
2021/07/10 03:48:01;;;;;;;9.68;8.77;;;14.30;83.60;;;12.79;84.41;96373.75;5064488;28;20079;-65
2021/07/10 03:50:27;;;;;;;13.77;12.35;;;14.30;83.70;;;12.80;84.54;96375.41;5084676;28;20040;-64
2021/07/10 03:52:53;;;;;;;17.40;15.65;;;14.30;83.80;;;12.80;84.65;96370.13;5010417;28;20521;-65
2021/07/10 03:55:19;;;;;;;20.52;11.52;;;14.30;83.90;;;12.81;84.80;96372.56;5016696;28;20041;-65
2021/07/10 03:57:45;;;;;;;13.55;12.25;;;14.40;84.10;;;12.82;85.56;96368.09;5054545;28;20157;-64
2021/07/10 04:00:15;;;;;;;35.30;31.65;;;14.50;84.40;;;12.83;85.68;96364.44;5054436;28;20123;-64
2021/07/10 04:02:41;;;;;;;34.80;30.05;;;14.40;84.30;;;12.84;85.34;96361.59;5032746;28;20037;-65
2021/07/10 04:05:08;;;;;;;25.85;21.17;;;14.50;84.30;;;12.83;85.26;96359.97;5029338;28;20040;-64
2021/07/10 04:07:34;;;;;;;39.53;11.90;;;14.50;84.30;;;12.83;85.04;96362.59;5034300;28;20033;-65
2021/07/10 04:10:00;;;;;;;13.57;9.60;;;14.40;84.00;;;12.80;85.15;96360.38;5033652;28;20029;-64
2021/07/10 04:12:27;;;;;;;19.35;9.02;;;14.50;83.90;;;12.80;85.37;96355.09;5053491;28;20040;-64
2021/07/10 04:14:54;;;;;;;10.63;9.48;;;14.40;83.90;;;12.83;85.51;96361.81;5037081;28;20078;-65
2021/07/10 04:17:20;;;;;;;10.25;9.35;;;14.50;84.00;;;12.85;85.67;96357.94;5065222;28;20200;-65
2021/07/10 04:19:46;;;;;;;13.90;9.65;;;14.50;84.20;;;12.89;85.45;96358.38;5033945;28;20065;-64
2021/07/10 04:22:11;;;;;;;15.77;10.15;;;14.50;84.40;;;12.93;85.63;96364.09;5034612;28;20638;-65
2021/07/10 04:24:37;;;;;;;14.05;9.23;;;14.60;84.50;;;12.96;84.94;96363.69;5044461;28;20163;-64
2021/07/10 04:27:03;;;;;;;16.95;9.70;;;14.60;84.40;;;12.98;85.38;96367.75;5029686;28;20041;-66
2021/07/10 04:29:29;;;;;;;10.77;9.57;;;14.60;84.50;;;13.01;85.36;96367.38;5061273;28;20051;-68
2021/07/10 04:31:55;;;;;;;20.10;9.77;;;14.70;84.40;;;13.04;85.76;96368.78;5062375;28;20105;-68
2021/07/10 04:34:21;;;;;;;9.52;8.68;;;14.70;84.10;;;13.05;85.26;96362.50;5034876;28;20037;-68
2021/07/10 04:36:46;;;;;;;19.73;8.50;;;14.70;84.00;;;13.07;85.96;96355.19;5017982;28;20057;-67
2021/07/10 04:39:12;;;;;;;13.60;9.45;;;14.70;83.90;;;13.09;85.74;96358.44;5017382;28;20324;-68
2021/07/10 04:41:38;;;;;;;10.70;9.23;;;14.80;83.90;;;13.10;85.66;96345.03;5034500;28;20025;-68
2021/07/10 04:44:04;;;;;;;11.70;9.23;;;14.80;84.00;;;13.13;85.46;96357.06;5056351;28;20603;-68
2021/07/10 04:46:30;;;;;;;16.83;9.55;;;14.80;83.90;;;13.13;86.16;96354.41;5037473;28;20535;-67
2021/07/10 04:48:55;;;;;;;9.95;8.95;;;14.80;83.70;;;13.13;86.38;96355.22;5053930;28;20032;-68
2021/07/10 04:51:21;;;;;;;14.38;12.82;;;14.80;83.90;;;13.15;85.47;96355.03;5054112;28;20040;-68
2021/07/10 04:53:47;;;;;;;18.55;15.48;;;14.90;83.60;;;13.17;86.01;96360.94;5069443;28;20094;-67
2021/07/10 04:56:12;;;;;;;15.05;13.57;;;14.90;83.60;;;13.20;86.20;96360.56;5053866;28;20032;-67
2021/07/10 04:58:38;;;;;;;20.75;14.90;;;15.00;83.60;;;13.24;85.38;96361.78;5054248;28;20040;-68
2021/07/10 05:01:04;;;;;;;19.10;17.17;;;15.00;83.70;;;13.29;85.27;96353.25;5053643;28;20086;-68
2021/07/10 05:03:30;;;;;;;20.40;16.83;;;15.10;83.80;;;13.35;86.19;96353.28;5033706;28;20401;-67
2021/07/10 05:05:56;;;;;;;12.02;10.55;;;15.10;83.70;;;13.41;86.44;96346.38;5043276;28;20060;-68
2021/07/10 05:08:22;;;;;;;14.18;10.70;;;15.20;83.70;;;13.46;85.56;96357.97;5047102;28;20029;-68
2021/07/10 05:10:47;;;;;;;12.85;9.75;;;15.30;83.60;;;13.53;85.37;96349.25;5030432;28;20517;-68
2021/07/10 05:13:13;;;;;;;10.73;9.63;;;15.40;83.70;;;13.60;86.37;96344.81;5018258;28;20036;-68
2021/07/10 05:15:39;;;;;;;13.32;10.82;;;15.40;83.80;;;13.65;86.13;96350.28;5030007;28;20033;-68
2021/07/10 05:18:06;;;;;;;12.70;10.82;;;15.50;83.80;;;13.74;85.99;96352.53;5032854;28;20404;-67
2021/07/10 05:20:31;;;;;;;14.27;12.20;;;15.60;83.70;;;13.84;86.14;96360.06;5065032;28;20450;-68
2021/07/10 05:22:57;;;;;;;18.50;14.30;;;15.70;83.70;;;13.92;86.92;96353.75;5051867;28;20127;-68
2021/07/10 05:25:23;;;;;;;15.98;14.38;;;15.80;83.70;;;14.00;87.41;96351.72;5066393;28;20460;-68
2021/07/10 05:27:49;;;;;;;15.18;13.63;;;16.00;83.60;;;14.12;87.34;96349.28;5053206;28;20082;-68
2021/07/10 05:30:16;;;;;;;16.38;14.70;;;16.10;83.70;;;14.24;85.74;96352.91;5052796;28;20114;-68
2021/07/10 05:32:42;;;;;;;22.45;15.55;;;16.20;83.60;;;14.33;86.69;96350.88;5044113;28;20040;-68
2021/07/10 05:35:09;;;;;;;28.70;23.20;;;16.30;83.50;;;14.40;86.83;96359.63;5033316;28;20428;-67
2021/07/10 05:37:35;;;;;;;46.47;36.95;;;16.40;83.20;;;14.47;87.09;96363.09;5033488;28;20033;-68
2021/07/10 05:40:00;;;;;;;28.02;19.95;;;16.50;83.20;;;14.56;87.13;96359.22;5015827;28;20142;-68
2021/07/10 05:42:26;;;;;;;22.08;18.30;;;16.50;83.10;;;14.63;86.72;96362.66;5052837;28;20086;-68
2021/07/10 05:44:52;;;;;;;25.35;18.63;;;16.60;82.90;;;14.70;86.21;96355.50;5049715;28;20029;-68
2021/07/10 05:47:17;;;;;;;21.52;17.55;;;16.70;82.80;;;14.78;85.65;96354.47;5020111;28;20088;-68
2021/07/10 05:49:43;;;;;;;20.00;17.70;;;16.80;82.50;;;14.89;85.47;96363.59;5013173;28;20069;-68
2021/07/10 05:52:09;;;;;;;18.83;16.83;;;17.00;82.20;;;15.01;86.11;96360.09;5013339;28;20489;-68
2021/07/10 05:54:35;;;;;;;21.80;17.92;;;17.10;81.90;;;15.12;86.01;96369.19;5020658;28;20025;-69
2021/07/10 05:57:00;;;;;;;19.85;17.30;;;17.20;81.70;;;15.24;86.55;96374.66;5058237;28;20114;-69
2021/07/10 05:59:26;;;;;;;21.15;17.42;;;17.30;81.60;;;15.31;84.78;96370.94;5068533;28;20097;-69
2021/07/10 06:01:52;;;;;;;23.58;17.75;;;17.40;81.00;;;15.39;85.79;96374.38;5068600;28;20029;-69
2021/07/10 06:04:17;;;;;;;49.47;41.47;;;17.50;81.10;;;15.47;86.35;96374.13;5046491;28;20423;-69
2021/07/10 06:06:44;;;;;;;23.42;20.63;;;17.50;80.90;;;15.52;85.68;96383.06;5048230;28;20530;-68
2021/07/10 06:09:09;;;;;;;26.30;22.42;;;17.60;80.30;;;15.55;85.27;96376.53;5027798;28;20117;-68
2021/07/10 06:11:35;;;;;;;24.88;22.13;;;17.60;80.10;;;15.63;85.30;96378.97;5061764;28;20064;-68
2021/07/10 06:14:03;;;;;;;31.20;25.70;;;17.70;80.50;;;15.72;84.23;96367.06;5049454;28;20045;-67
2021/07/10 06:16:29;;;;;;;25.42;21.48;;;17.80;80.30;;;15.82;84.21;96377.19;5026765;28;20028;-68
2021/07/10 06:18:54;;;;;;;23.67;18.83;;;17.90;80.30;;;15.89;84.12;96378.00;5047834;28;20182;-68
2021/07/10 06:21:20;;;;;;;18.23;16.38;;;18.10;79.40;;;15.99;84.38;96372.19;5015190;28;20033;-70
2021/07/10 06:23:46;;;;;;;18.90;16.88;;;18.10;79.10;;;16.08;84.29;96370.91;5060062;28;20033;-69
2021/07/10 06:26:12;;;;;;;21.17;16.35;;;18.30;78.90;;;16.16;83.77;96367.97;5067600;28;20032;-70
2021/07/10 06:28:38;;;;;;;21.92;19.08;;;18.50;78.70;;;16.29;84.50;96367.84;5057910;28;20040;-70
2021/07/10 06:31:04;;;;;;;19.17;17.00;;;18.70;78.40;;;16.40;83.96;96364.47;5063654;28;20037;-69
2021/07/10 06:33:30;;;;;;;15.27;13.68;;;18.70;77.10;;;16.47;82.97;96370.53;5050016;28;20078;-69
2021/07/10 06:35:55;;;;;;;17.67;14.02;;;18.80;76.70;;;16.56;82.99;96372.94;5048845;28;20072;-72
2021/07/10 06:38:21;;;;;;;14.68;12.93;;;18.70;76.50;;;16.65;82.58;96371.59;5052790;28;20056;-71
2021/07/10 06:40:47;;;;;;;14.10;12.60;;;18.90;76.40;;;16.72;82.46;96377.66;5048492;28;20072;-70
2021/07/10 06:43:13;;;;;;;14.90;12.65;;;18.90;76.40;;;16.82;81.64;96378.00;5036738;28;20028;-67
2021/07/10 06:45:38;;;;;;;13.60;12.27;;;19.00;76.30;;;16.88;81.70;96382.41;5033930;28;20036;-67
2021/07/10 06:48:05;;;;;;;13.32;12.00;;;19.10;75.70;;;16.95;82.05;96383.13;5014668;28;20048;-67
2021/07/10 06:50:30;;;;;;;12.68;11.38;;;19.20;75.90;;;17.03;81.09;96380.22;5059213;28;20453;-71
2021/07/10 06:52:56;;;;;;;14.25;12.15;;;19.30;75.20;;;17.09;81.42;96378.50;5047523;28;20067;-68
2021/07/10 06:55:22;;;;;;;13.93;12.23;;;19.30;75.00;;;17.18;81.29;96379.00;5031464;28;20040;-68
2021/07/10 06:57:48;;;;;;;17.50;14.13;;;19.50;75.60;;;17.26;81.28;96378.72;5037861;28;20540;-68
2021/07/10 07:00:16;;;;;;;16.48;13.82;;;19.50;75.10;;;17.29;80.13;96384.38;5047844;28;20033;-68
2021/07/10 07:02:42;;;;;;;17.52;14.55;;;19.50;74.90;;;17.35;80.94;96382.66;5048852;28;20040;-68
2021/07/10 07:05:09;;;;;;;18.05;15.73;;;19.60;75.00;;;17.42;80.26;96378.06;5048401;28;20033;-68
2021/07/10 07:07:35;;;;;;;18.30;15.82;;;19.60;74.50;;;17.49;80.35;96373.50;5031788;28;20111;-68
2021/07/10 07:10:02;;;;;;;19.23;17.17;;;19.80;74.00;;;17.59;79.73;96373.75;5047552;28;20497;-68
2021/07/10 07:12:28;;;;;;;23.58;20.42;;;19.90;73.40;;;17.71;79.63;96374.63;5037576;28;20037;-69
2021/07/10 07:14:53;;;;;;;21.17;17.52;;;20.10;72.90;;;17.82;79.20;96372.22;5053689;28;20035;-68
2021/07/10 07:17:19;;;;;;;17.33;15.13;;;20.10;72.40;;;17.91;79.46;96365.56;5029756;28;20034;-68
2021/07/10 07:19:45;;;;;;;16.40;14.60;;;20.30;72.60;;;18.00;79.17;96364.97;5028315;28;20074;-69
2021/07/10 07:22:11;;;;;;;16.75;13.93;;;20.60;71.50;;;18.21;79.55;96365.47;5050554;28;20525;-68
2021/07/10 07:24:36;;;;;;;13.90;12.05;;;21.30;69.50;;;18.49;78.25;96359.47;5035095;28;20523;-68
2021/07/10 07:27:02;;;;;;;14.55;12.05;;;21.70;68.20;;;18.75;77.80;96360.84;5066298;28;20064;-68
2021/07/10 07:29:28;;;;;;;15.88;11.52;;;21.70;67.20;;;18.98;78.10;96356.28;5068025;28;20035;-68
2021/07/10 07:31:54;;;;;;;12.80;10.40;;;21.90;67.00;;;19.19;76.85;96351.38;5067518;28;20047;-68
2021/07/10 07:34:20;;;;;;;13.65;10.57;;;22.00;67.00;;;19.34;75.86;96353.53;5034757;28;20044;-68
2021/07/10 07:36:45;;;;;;;12.48;10.07;;;22.00;66.60;;;19.43;75.49;96357.44;5065699;28;20032;-68
2021/07/10 07:39:11;;;;;;;13.82;9.73;;;22.00;65.80;;;19.53;75.25;96347.81;5017847;28;20060;-68
2021/07/10 07:41:37;;;;;;;13.10;9.23;;;22.20;65.70;;;19.70;75.20;96349.72;5068250;28;20033;-67
2021/07/10 07:44:04;;;;;;;11.93;9.63;;;22.40;65.10;;;19.78;73.78;96333.28;5032555;28;20124;-68
2021/07/10 07:46:30;;;;;;;12.77;11.05;;;22.30;64.20;;;19.84;74.21;96337.66;5051464;28;20468;-68
2021/07/10 07:48:55;;;;;;;11.90;9.75;;;22.80;62.60;;;20.01;74.24;96335.81;5051152;28;20063;-68
2021/07/10 07:51:21;;;;;;;12.73;9.20;;;22.80;63.10;;;20.27;73.09;96326.34;5068020;28;20044;-68
2021/07/10 07:53:50;;;;;;;13.00;9.55;;;23.50;61.90;;;20.54;73.21;96325.66;5084545;28;20025;-68
2021/07/10 07:56:16;;;;;;;9.75;8.65;;;23.60;60.90;;;20.72;72.68;96333.41;5056259;28;20060;-67
2021/07/10 07:58:41;;;;;;;12.95;10.93;;;23.70;60.90;;;20.84;72.15;96322.63;5020625;28;20071;-67
2021/07/10 08:01:10;;;;;;;14.32;10.45;;;23.80;58.90;;;20.92;69.41;96330.19;5067753;28;20032;-68
2021/07/10 08:03:36;;;;;;;10.43;8.30;;;24.00;59.10;;;21.16;70.92;96334.25;5031386;28;20091;-68
2021/07/10 08:06:03;;;;;;;8.00;7.20;;;24.40;58.40;;;21.36;70.37;96331.81;5031294;28;20045;-66
2021/07/10 08:08:28;;;;;;;10.70;8.77;;;24.40;58.30;;;21.57;69.71;96334.72;5048168;28;20106;-68
2021/07/10 08:10:55;;;;;;;13.25;7.93;;;24.50;57.50;;;21.74;69.09;96330.06;5014664;28;20111;-68
2021/07/10 08:13:21;;;;;;;8.88;7.88;;;25.00;56.60;;;21.98;68.70;96323.31;5053848;28;20075;-68
2021/07/10 08:15:47;;;;;;;8.57;7.28;;;25.30;56.00;;;22.12;68.22;96325.59;5025195;28;20037;-67
2021/07/10 08:18:13;;;;;;;13.05;11.75;;;25.00;55.70;;;22.21;67.82;96324.88;5048915;28;20516;-68
2021/07/10 08:20:38;;;;;;;11.25;8.48;;;25.50;54.90;;;22.39;67.76;96315.59;5033019;28;20047;-66
2021/07/10 08:23:04;;;;;;;9.70;8.45;;;25.70;54.20;;;22.64;67.11;96312.28;5052784;28;20471;-69
2021/07/10 08:25:30;;;;;;;9.63;7.68;;;25.70;55.00;;;22.86;66.95;96307.59;5032681;28;20505;-69
2021/07/10 08:27:56;;;;;;;8.10;7.10;;;25.90;53.90;;;23.13;66.32;96304.75;5057880;28;20143;-70
2021/07/10 08:30:22;;;;;;;7.80;7.10;;;26.20;53.70;;;23.29;65.20;96299.41;5049120;28;20110;-68
2021/07/10 08:32:48;;;;;;;9.65;7.22;;;26.30;52.20;;;23.45;64.40;96301.06;5032983;28;20544;-71
2021/07/10 08:35:16;;;;;;;8.10;6.93;;;26.40;52.00;;;23.63;62.47;96297.91;5017718;28;20520;-69
2021/07/10 08:37:43;;;;;;;9.38;6.13;;;26.80;51.40;;;23.85;62.77;96294.97;5035782;28;20171;-70
2021/07/10 08:40:09;;;;;;;8.18;7.35;;;27.10;51.00;;;23.94;62.80;96292.56;5044430;28;20115;-70
2021/07/10 08:42:35;;;;;;;8.23;7.30;;;26.80;49.50;;;23.99;61.84;96287.16;5054441;28;20155;-70
2021/07/10 08:45:09;;;;;;;9.75;6.95;;;27.00;49.80;;;24.26;58.75;96289.59;5032333;28;20029;-68
2021/07/10 08:47:41;;;;;;;7.10;5.30;;;27.40;49.70;;;24.52;61.05;96290.38;5050845;28;20036;-73
2021/07/10 08:50:09;;;;;;;8.18;5.80;;;27.80;50.00;;;24.65;60.06;96292.47;5033682;28;20053;-69
2021/07/10 08:52:35;;;;;;;7.18;5.95;;;27.60;49.70;;;24.85;60.17;96284.34;5039104;28;20643;-72
2021/07/10 08:55:05;;;;;;;9.07;7.47;;;28.00;48.00;;;24.85;56.48;96286.22;5057147;28;20157;-71
2021/07/10 08:57:35;;;;;;;;;;;27.80;47.10;;;24.90;56.47;96284.34;5062563;28;20531;-71
2021/07/10 09:00:08;;;;;;;6.40;5.28;;;28.10;47.40;;;25.15;56.45;96285.34;5052369;28;19947;-71
2021/07/10 09:02:35;;;;;;;7.57;6.10;;;28.50;47.10;;;25.29;58.84;96279.06;5050443;28;20155;-71
2021/07/10 09:05:02;;;;;;;7.40;6.03;;;28.60;46.50;;;25.50;58.61;96282.44;5050449;28;20028;-72
2021/07/10 09:07:28;;;;;;;7.20;4.90;;;28.70;47.20;;;25.70;58.28;96286.13;5058843;28;20054;-71
2021/07/10 09:09:54;;;;;;;5.03;4.07;;;29.10;47.00;;;25.88;57.35;96283.56;5070892;28;20035;-71
2021/07/10 09:12:30;;;;;;;5.10;4.60;;;29.10;45.50;;;25.94;53.07;96271.63;5063492;28;20503;-72
2021/07/10 09:15:18;;;;;;;6.28;4.88;;;29.20;43.90;;;26.01;52.57;96271.31;5053755;28;20078;-71
2021/07/10 09:17:46;;;;;;;4.35;3.95;;;28.90;44.70;;;26.09;56.41;96268.03;5028289;28;20053;-72
2021/07/10 09:20:26;;;;;;;6.90;5.03;;;29.30;46.30;;;26.33;53.51;96262.66;5061181;28;20881;-70
2021/07/10 09:22:54;;;;;;;5.25;4.07;;;29.60;44.70;;;26.49;54.74;96261.47;5013188;28;20052;-71
2021/07/10 09:25:25;;;;;;;4.43;3.97;;;29.80;44.70;;;26.70;54.83;96256.63;5023191;28;20052;-70
2021/07/10 09:27:55;;;;;;;5.32;4.03;;;30.10;44.30;;;26.88;52.98;96256.97;5057733;28;20025;-71
2021/07/10 09:30:37;;;;;;;6.20;4.75;;;30.30;43.80;;;26.97;50.64;96239.03;5020099;28;20550;-70
2021/07/10 09:33:22;;;;;;;4.40;4.00;;;30.20;41.70;;;27.07;51.06;96249.72;5020682;28;20040;-70
2021/07/10 09:35:53;;;;;;;5.10;3.78;;;30.30;42.70;;;27.14;50.84;96250.97;5038762;28;20033;-70
2021/07/10 09:38:21;;;;;;;6.88;4.68;;;30.60;41.60;;;27.21;53.34;96249.81;5001074;28;20464;-70
2021/07/10 09:41:06;;;;;;;5.45;4.70;;;30.30;42.90;;;27.33;50.47;96247.47;5053390;28;20036;-71
2021/07/10 09:43:33;;;;;;;4.78;4.28;;;30.40;42.30;;;27.35;52.93;96235.28;5069593;28;20043;-71
2021/07/10 09:46:02;;;;;;;4.13;3.38;;;30.60;42.70;;;27.57;52.52;96233.88;5032185;28;20045;-70
2021/07/10 09:48:33;;;;;;;6.10;3.90;;;30.90;42.00;;;27.77;49.86;96226.28;5033452;28;20187;-70
2021/07/10 09:51:25;;;;;;;4.57;3.70;;;31.20;41.00;;;28.02;49.33;96218.84;5055346;28;20039;-71
2021/07/10 09:54:11;;;;;;;4.13;3.40;;;31.50;41.30;;;28.16;48.04;96221.59;5036235;28;20033;-70
2021/07/10 09:56:39;;;;;;;4.97;3.60;;;31.70;40.00;;;28.34;50.77;96223.47;5049069;28;20040;-70
2021/07/10 09:59:34;;;;;;;6.05;3.70;;;32.00;40.70;;;28.45;47.70;96203.22;5049533;28;20040;-70
2021/07/10 10:02:00;;;;;;;4.75;3.65;;;32.20;39.20;;;28.58;50.65;96202.41;5067971;28;20036;-70
2021/07/10 10:04:29;;;;;;;3.40;3.08;;;32.40;38.10;;;28.79;48.39;96204.72;5058960;28;20029;-72
2021/07/10 10:06:56;;;;;;;5.47;3.13;;;32.60;38.20;;;29.05;50.08;96203.09;5036589;28;20036;-70
2021/07/10 10:09:29;;;;;;;3.17;2.88;;;33.00;36.50;;;29.37;46.40;96193.16;5034652;28;20036;-71